Time;durP1;ratioP1;P1;durP2;ratioP2;P2;SDS_P1;SDS_P2;PMS_P1;PMS_P2;Temp;Humidity;BMP_temperature;BMP_pressure;BME280_temperature;BME280_humidity;BME280_pressure;Samples;Min_cycle;Max_cycle;Signal;HPM_P1;HPM_P2
2022/01/25 00:08:19;;;;;;;37.78;20.83;;;0.80;35.70;;;;;;7383365;19;20018;-62
2022/01/25 00:10:15;;;;;;;36.17;20.15;;;1.00;36.70;;;;;;7363618;19;20010;-63
2022/01/25 00:16:02;;;;;;;35.47;20.55;;;0.80;35.50;;;;;;7368727;19;20028;-63
2022/01/25 00:26:38;;;;;;;37.63;20.75;;;0.70;36.60;;;;;;7370235;19;20011;-62
2022/01/25 00:29:12;;;;;;;37.35;21.77;;;0.70;36.90;;;;;;7391246;19;20523;-63
2022/01/25 00:31:43;;;;;;;37.25;21.13;;;0.70;36.90;;;;;;7362327;19;20013;-62
2022/01/25 00:34:16;;;;;;;41.35;21.77;;;0.60;36.50;;;;;;7367069;19;20015;-62
2022/01/25 00:36:46;;;;;;;41.53;21.70;;;0.60;36.80;;;;;;7369006;19;20014;-62
2022/01/25 00:39:16;;;;;;;35.00;19.90;;;0.60;37.50;;;;;;7363526;19;20019;-63
2022/01/25 00:41:48;;;;;;;35.17;20.25;;;0.60;37.30;;;;;;7365437;19;20031;-63
2022/01/25 00:44:18;;;;;;;37.15;20.55;;;0.60;36.60;;;;;;7380596;19;20007;-63
2022/01/25 00:46:48;;;;;;;33.88;19.35;;;0.60;36.50;;;;;;7386732;19;20014;-63
2022/01/25 00:49:27;;;;;;;32.00;17.33;;;0.30;35.90;;;;;;7365793;19;20011;-63
2022/01/25 00:52:07;;;;;;;33.00;17.67;;;0.20;36.00;;;;;;7366373;19;20018;-62
2022/01/25 00:54:40;;;;;;;32.63;17.42;;;0.00;36.30;;;;;;7365394;19;20007;-63
2022/01/25 00:57:12;;;;;;;30.50;18.27;;;0.00;37.20;;;;;;7368448;19;20498;-62
2022/01/25 00:59:44;;;;;;;40.88;18.92;;;-0.10;37.90;;;;;;7359857;19;20014;-63
2022/01/25 01:02:16;;;;;;;34.20;18.88;;;-0.10;37.90;;;;;;7385917;19;20018;-63
2022/01/25 01:04:54;;;;;;;29.38;17.70;;;-0.20;37.90;;;;;;7366479;19;20011;-62
2022/01/25 01:07:25;;;;;;;29.30;18.05;;;-0.30;37.80;;;;;;7368335;19;20056;-62
2022/01/25 01:09:55;;;;;;;27.77;16.75;;;-0.30;38.40;;;;;;7356749;19;20011;-63
2022/01/25 01:12:53;;;;;;;31.15;18.30;;;-0.30;39.30;;;;;;7365360;19;20003;-63
2022/01/25 01:15:28;;;;;;;33.40;18.15;;;-0.40;39.10;;;;;;7366898;19;20050;-62
2022/01/25 01:31:59;;;;;;;35.75;19.95;;;-0.50;41.00;;;;;;7357908;19;20018;-62
2022/01/25 01:43:05;;;;;;;41.05;23.02;;;-0.10;42.00;;;;;;7365122;19;19913;-63
2022/01/25 01:45:48;;;;;;;38.60;22.75;;;-0.10;42.00;;;;;;7367740;19;20050;-63
2022/01/25 01:48:27;;;;;;;43.10;21.83;;;0.00;42.40;;;;;;7368553;19;20466;-62
2022/01/25 01:51:03;;;;;;;41.35;22.23;;;0.00;42.60;;;;;;7355794;19;20044;-62
2022/01/25 01:53:37;;;;;;;38.72;21.38;;;-0.10;42.00;;;;;;7364637;19;20006;-63
2022/01/25 01:56:07;;;;;;;35.65;20.65;;;-0.20;41.50;;;;;;7369058;19;20365;-62
2022/01/25 01:58:38;;;;;;;40.05;21.95;;;-0.20;42.00;;;;;;7387031;19;20010;-63
2022/01/25 02:01:15;;;;;;;35.03;19.77;;;-0.20;41.90;;;;;;7356375;19;20602;-62
2022/01/25 02:03:46;;;;;;;36.80;20.88;;;-0.20;41.90;;;;;;7367407;19;20027;-63
2022/01/25 02:06:16;;;;;;;34.40;20.48;;;-0.20;41.60;;;;;;7364152;19;20019;-63
2022/01/25 02:08:50;;;;;;;34.88;19.77;;;-0.20;41.90;;;;;;7367048;19;20007;-62
2022/01/25 02:11:23;;;;;;;35.35;21.40;;;-0.20;41.80;;;;;;7359004;19;20035;-62
2022/01/25 02:13:55;;;;;;;37.75;20.58;;;-0.20;42.00;;;;;;7385061;19;20069;-63
2022/01/25 02:16:40;;;;;;;35.58;19.52;;;-0.20;41.70;;;;;;7364072;19;20010;-61
2022/01/25 02:24:50;;;;;;;36.58;21.33;;;-0.30;41.70;;;;;;7362974;19;20767;-63
2022/01/25 02:27:20;;;;;;;35.35;19.90;;;-0.30;42.00;;;;;;7367101;19;20402;-62
2022/01/25 02:29:50;;;;;;;38.50;20.45;;;-0.20;42.60;;;;;;7355454;19;20014;-62
2022/01/25 02:32:20;;;;;;;40.42;21.73;;;-0.20;42.00;;;;;;7362250;19;20050;-62
2022/01/25 02:34:50;;;;;;;39.15;21.02;;;-0.20;42.10;;;;;;7387030;19;20613;-62
2022/01/25 02:37:23;;;;;;;43.55;22.33;;;-0.20;42.00;;;;;;7365636;19;20086;-61
2022/01/25 02:39:53;;;;;;;44.30;20.63;;;-0.30;41.90;;;;;;7355011;19;20074;-61
2022/01/25 02:42:23;;;;;;;39.85;21.42;;;-0.30;41.90;;;;;;7364604;19;20050;-62
2022/01/25 02:44:53;;;;;;;38.13;21.58;;;-0.30;41.90;;;;;;7365236;19;20027;-62
2022/01/25 02:50:07;;;;;;;41.50;22.17;;;-0.30;41.80;;;;;;7357061;19;20462;-62
2022/01/25 02:52:40;;;;;;;44.10;23.17;;;-0.30;41.90;;;;;;7386873;19;20015;-62
2022/01/25 02:55:10;;;;;;;44.08;23.25;;;-0.30;41.80;;;;;;7361609;19;20071;-61
2022/01/25 02:57:40;;;;;;;44.13;24.20;;;-0.30;41.70;;;;;;7365783;19;20056;-61
2022/01/25 03:00:11;;;;;;;47.22;24.65;;;-0.20;41.80;;;;;;7360715;19;20039;-61
2022/01/25 03:02:41;;;;;;;48.35;25.40;;;-0.20;41.40;;;;;;7362222;19;20010;-61
2022/01/25 03:05:12;;;;;;;48.53;24.02;;;-0.30;41.20;;;;;;7364272;19;20081;-61
2022/01/25 03:07:45;;;;;;;48.40;24.17;;;-0.30;41.00;;;;;;7385903;19;20041;-62
2022/01/25 03:10:15;;;;;;;46.65;23.63;;;-0.40;41.00;;;;;;7359843;19;20014;-61
2022/01/25 03:12:49;;;;;;;46.22;23.60;;;-0.50;40.70;;;;;;7363065;19;20015;-62
2022/01/25 03:15:41;;;;;;;51.50;25.13;;;-0.50;41.00;;;;;;7366062;19;20074;-62
2022/01/25 03:18:24;;;;;;;43.55;24.08;;;-0.60;41.00;;;;;;7361823;19;20026;-62
2022/01/25 03:21:01;;;;;;;49.97;26.05;;;-0.60;41.60;;;;;;7353689;19;20014;-62
2022/01/25 03:23:33;;;;;;;45.38;26.25;;;-0.60;41.50;;;;;;7363065;19;20026;-62
2022/01/25 03:26:03;;;;;;;49.53;24.65;;;-0.60;42.10;;;;;;7361374;19;20410;-63
2022/01/25 03:28:33;;;;;;;48.35;24.73;;;-0.60;42.20;;;;;;7382835;19;20014;-62
2022/01/25 03:31:03;;;;;;;50.38;26.23;;;-0.60;41.90;;;;;;7354209;19;20016;-62
2022/01/25 03:33:33;;;;;;;51.55;25.95;;;-0.60;42.20;;;;;;7361252;19;20551;-62
2022/01/25 03:36:03;;;;;;;54.83;27.30;;;-0.60;42.30;;;;;;7359607;19;20022;-62
2022/01/25 03:38:37;;;;;;;53.83;28.13;;;-0.50;42.90;;;;;;7348545;19;20372;-63
2022/01/25 03:41:09;;;;;;;50.83;27.13;;;-0.40;42.90;;;;;;7360860;19;20022;-61
2022/01/25 03:43:39;;;;;;;55.78;26.83;;;-0.40;42.70;;;;;;7342991;19;20758;-61
2022/01/25 03:46:15;;;;;;;54.42;27.92;;;-0.40;42.40;;;;;;7360897;19;20047;-61
2022/01/25 03:51:27;;;;;;;55.38;27.85;;;-0.50;41.70;;;;;;7349987;19;20525;-61
2022/01/25 03:54:00;;;;;;;48.90;26.35;;;-0.40;42.10;;;;;;7360162;19;20081;-62
2022/01/25 03:56:30;;;;;;;56.03;27.85;;;-0.40;41.90;;;;;;7360991;19;20018;-62
2022/01/25 03:59:00;;;;;;;53.88;27.45;;;-0.40;41.80;;;;;;7380451;19;20014;-61
2022/01/25 04:01:30;;;;;;;59.45;27.50;;;-0.40;41.80;;;;;;7351103;19;20014;-62
2022/01/25 04:04:04;;;;;;;50.42;26.20;;;-0.40;41.60;;;;;;7361460;19;20006;-62
2022/01/25 04:06:35;;;;;;;50.33;27.30;;;-0.40;41.80;;;;;;7358595;19;20011;-62
2022/01/25 04:09:10;;;;;;;50.85;26.38;;;-0.40;41.60;;;;;;7360624;19;20014;-62
2022/01/25 04:11:40;;;;;;;;;;;-0.40;41.30;;;;;;7354357;19;20098;-62
2022/01/25 04:14:10;;;;;;;55.53;28.65;;;-0.40;41.00;;;;;;7382323;19;19918;-62
2022/01/25 04:16:49;;;;;;;54.60;28.30;;;-0.40;40.90;;;;;;7361229;19;20101;-62
2022/01/25 04:19:29;;;;;;;48.40;26.88;;;-0.40;40.50;;;;;;7358608;19;20007;-61
2022/01/25 04:27:40;;;;;;;55.47;26.42;;;-0.40;40.00;;;;;;7358898;19;20013;-62
2022/01/25 04:30:11;;;;;;;52.20;26.98;;;-0.40;39.60;;;;;;7352032;19;20078;-62
2022/01/25 04:32:48;;;;;;;49.33;26.17;;;-0.40;39.40;;;;;;7357714;19;20018;-62
2022/01/25 04:35:44;;;;;;;45.67;26.25;;;-0.40;39.20;;;;;;7359269;19;20038;-62
2022/01/25 04:49:21;;;;;;;52.10;25.92;;;-0.60;38.40;;;;;;7368801;19;20526;-62
2022/01/25 04:52:00;;;;;;;46.80;25.63;;;-0.60;38.90;;;;;;7357446;19;20007;-62
2022/01/25 04:54:48;;;;;;;47.70;25.33;;;-0.70;39.00;;;;;;7366596;19;20011;-62
2022/01/25 04:57:39;;;;;;;49.53;25.55;;;-0.70;39.50;;;;;;7367673;19;20013;-60
2022/01/25 05:00:17;;;;;;;44.80;23.40;;;-0.70;39.70;;;;;;7359262;19;20011;-60
2022/01/25 05:02:53;;;;;;;45.40;24.48;;;-0.80;39.40;;;;;;7367231;19;20068;-61
2022/01/25 05:05:30;;;;;;;44.35;25.45;;;-0.80;39.70;;;;;;7368883;19;20007;-62
2022/01/25 05:08:06;;;;;;;44.85;24.70;;;-0.80;39.90;;;;;;7389554;19;20013;-61
2022/01/25 05:10:47;;;;;;;47.85;24.42;;;-0.70;41.10;;;;;;7357021;19;20015;-61
2022/01/25 05:13:37;;;;;;;46.33;25.58;;;-0.80;40.40;;;;;;7366386;19;20466;-61
2022/01/25 05:16:15;;;;;;;46.53;24.90;;;-0.70;40.80;;;;;;7369010;19;20007;-61
2022/01/25 05:18:48;;;;;;;46.42;24.65;;;-0.80;40.30;;;;;;7367529;19;20497;-61
2022/01/25 05:24:01;;;;;;;46.08;24.48;;;-0.90;40.50;;;;;;7367431;19;20046;-61
2022/01/25 05:26:31;;;;;;;43.20;24.58;;;-0.90;41.10;;;;;;7364926;19;20405;-61
2022/01/25 05:29:03;;;;;;;43.45;24.83;;;-0.90;40.80;;;;;;7388127;19;20069;-61
2022/01/25 05:31:33;;;;;;;44.67;25.25;;;-0.90;40.80;;;;;;7359223;19;20006;-61
2022/01/25 05:34:04;;;;;;;50.05;25.08;;;-1.00;40.50;;;;;;7365887;19;20014;-61
2022/01/25 05:36:33;;;;;;;46.33;25.65;;;-1.00;40.40;;;;;;7366351;19;20019;-61
2022/01/25 05:39:09;;;;;;;43.50;24.00;;;-1.10;40.40;;;;;;7368434;19;20095;-61
2022/01/25 05:41:40;;;;;;;49.22;24.77;;;-1.10;40.60;;;;;;7356213;19;20380;-61
2022/01/25 05:44:27;;;;;;;49.85;26.30;;;-1.10;40.60;;;;;;7387113;19;20015;-61
2022/01/25 05:47:07;;;;;;;48.28;24.52;;;-1.10;40.90;;;;;;7264509;19;2004438;-61
2022/01/25 05:49:38;;;;;;;39.78;23.00;;;-1.10;41.10;;;;;;7387861;19;20019;-61
2022/01/25 05:52:11;;;;;;;45.13;25.35;;;-1.10;41.00;;;;;;7356637;19;20018;-61
2022/01/25 05:54:42;;;;;;;45.90;24.15;;;-1.10;41.20;;;;;;7365477;19;20511;-62
2022/01/25 05:57:12;;;;;;;44.80;24.58;;;-1.10;41.30;;;;;;7365316;19;20078;-61
2022/01/25 05:59:45;;;;;;;46.75;25.27;;;-1.10;41.40;;;;;;7362962;19;20010;-61
2022/01/25 06:02:17;;;;;;;45.65;24.80;;;-1.10;41.50;;;;;;7359419;19;20030;-62
2022/01/25 06:04:48;;;;;;;49.35;26.67;;;-1.20;41.50;;;;;;7389098;19;20019;-60
2022/01/25 06:07:18;;;;;;;49.05;26.20;;;-1.10;41.60;;;;;;7364367;19;20019;-62
2022/01/25 06:09:49;;;;;;;49.33;25.65;;;-1.20;41.40;;;;;;7362290;19;20010;-63
2022/01/25 06:12:20;;;;;;;51.67;26.40;;;-1.20;41.80;;;;;;7361666;19;20010;-61
2022/01/25 06:14:53;;;;;;;48.13;26.35;;;-1.10;42.40;;;;;;7364669;19;20134;-62
2022/01/25 06:17:23;;;;;;;47.42;24.80;;;-1.10;42.10;;;;;;7366482;19;20368;-62
2022/01/25 06:19:52;;;;;;;53.72;27.10;;;-1.10;42.40;;;;;;7382962;19;20014;-61
2022/01/25 06:22:22;;;;;;;54.88;26.95;;;-1.00;42.90;;;;;;7357884;19;20014;-62
2022/01/25 06:24:53;;;;;;;53.55;27.48;;;-0.90;42.80;;;;;;7363238;19;20018;-61
2022/01/25 06:27:22;;;;;;;51.33;26.67;;;-1.00;42.30;;;;;;7366126;19;20019;-61
2022/01/25 06:29:55;;;;;;;51.75;26.45;;;-0.90;42.60;;;;;;7359546;19;20018;-62
2022/01/25 06:32:25;;;;;;;52.20;26.83;;;-0.90;42.60;;;;;;7360747;19;20035;-62
2022/01/25 06:34:55;;;;;;;46.50;25.65;;;-0.80;42.90;;;;;;7386597;19;20034;-62
2022/01/25 06:37:25;;;;;;;54.50;27.52;;;-0.80;41.90;;;;;;7362551;19;20447;-61
2022/01/25 06:39:55;;;;;;;54.55;26.05;;;-0.80;41.70;;;;;;7358586;19;20039;-62
2022/01/25 06:42:27;;;;;;;54.40;26.88;;;-0.70;41.60;;;;;;7362025;19;20014;-62
2022/01/25 06:45:03;;;;;;;42.78;24.85;;;-0.70;41.30;;;;;;7363413;19;20023;-61
2022/01/25 06:47:33;;;;;;;51.20;25.15;;;-0.80;40.80;;;;;;7363699;19;20077;-62
2022/01/25 06:50:03;;;;;;;46.42;24.20;;;-0.80;40.60;;;;;;7379219;19;20014;-61
2022/01/25 06:52:36;;;;;;;54.20;26.48;;;-0.80;40.10;;;;;;7360000;19;20468;-61
2022/01/25 06:55:08;;;;;;;50.30;24.65;;;-0.80;40.10;;;;;;7360686;19;20013;-62
2022/01/25 06:57:38;;;;;;;48.97;26.63;;;-0.80;40.30;;;;;;7365229;19;20094;-61
2022/01/25 07:00:15;;;;;;;47.03;25.40;;;-0.80;40.00;;;;;;7353120;19;20045;-62
2022/01/25 07:02:45;;;;;;;50.95;25.98;;;-0.80;39.60;;;;;;7362730;19;20014;-62
2022/01/25 07:05:15;;;;;;;50.47;26.83;;;-0.90;39.20;;;;;;7385707;19;20030;-62
2022/01/25 07:07:47;;;;;;;53.50;25.60;;;-0.90;39.30;;;;;;7362273;19;20089;-62
2022/01/25 07:10:17;;;;;;;46.63;24.83;;;-0.90;39.10;;;;;;7349168;19;20037;-62
2022/01/25 07:12:47;;;;;;;46.08;23.60;;;-0.90;39.20;;;;;;7364350;19;20704;-62
2022/01/25 07:15:20;;;;;;;52.67;25.17;;;-0.90;39.20;;;;;;7361952;19;20022;-62
2022/01/25 07:17:50;;;;;;;47.30;24.58;;;-0.80;39.10;;;;;;7362272;19;20006;-61
2022/01/25 07:20:20;;;;;;;47.70;24.60;;;-0.80;38.80;;;;;;7354175;19;20083;-61
2022/01/25 07:22:51;;;;;;;56.50;26.80;;;-0.70;39.10;;;;;;7381554;19;20017;-61
2022/01/25 07:25:21;;;;;;;46.47;26.05;;;-0.80;38.60;;;;;;7360351;19;20021;-62
2022/01/25 07:27:51;;;;;;;46.70;25.40;;;-0.80;38.50;;;;;;7363160;19;20042;-62
2022/01/25 07:30:24;;;;;;;55.28;26.63;;;-0.70;38.70;;;;;;7350404;19;20783;-61
2022/01/25 07:32:54;;;;;;;51.67;25.70;;;-0.60;38.60;;;;;;7362802;19;20014;-61
2022/01/25 07:35:28;;;;;;;49.33;25.85;;;-0.60;38.20;;;;;;7363847;19;20042;-62
2022/01/25 07:37:59;;;;;;;45.70;25.33;;;-0.60;37.60;;;;;;7383107;19;20343;-62
2022/01/25 07:40:29;;;;;;;49.60;26.92;;;-0.60;37.50;;;;;;7351268;19;20500;-62
2022/01/25 07:42:59;;;;;;;48.13;24.92;;;-0.50;37.70;;;;;;7363146;19;20044;-61
2022/01/25 07:45:35;;;;;;;50.83;25.77;;;-0.50;37.60;;;;;;7361840;19;20006;-61
2022/01/25 07:48:08;;;;;;;46.33;24.80;;;-0.50;37.60;;;;;;7360791;19;20498;-61
2022/01/25 07:50:41;;;;;;;44.22;24.17;;;-0.40;37.40;;;;;;7354000;19;20023;-62
2022/01/25 07:53:10;;;;;;;50.30;25.13;;;-0.40;37.30;;;;;;7380759;19;20081;-61
2022/01/25 07:55:41;;;;;;;47.80;25.65;;;-0.30;37.00;;;;;;7356229;19;20399;-61
2022/01/25 07:58:11;;;;;;;48.47;25.35;;;-0.30;36.60;;;;;;7360827;19;20351;-61
2022/01/25 08:00:43;;;;;;;232.45;98.40;;;-0.30;36.40;;;;;;7350279;19;20002;-61
2022/01/25 08:03:13;;;;;;;45.85;26.08;;;-0.10;36.80;;;;;;7359045;19;20018;-61
2022/01/25 08:05:51;;;;;;;51.55;25.00;;;-0.10;35.40;;;;;;7360969;19;20684;-62
2022/01/25 08:08:24;;;;;;;55.05;25.00;;;-0.10;34.50;;;;;;7360199;19;20015;-61
2022/01/25 08:10:54;;;;;;;47.97;26.00;;;-0.10;33.80;;;;;;7371499;19;20006;-61
2022/01/25 08:13:25;;;;;;;44.35;24.48;;;0.00;33.80;;;;;;7362433;19;20027;-61
2022/01/25 08:15:59;;;;;;;49.83;25.35;;;0.10;32.90;;;;;;7358358;19;20011;-61
2022/01/25 08:18:32;;;;;;;51.28;25.15;;;0.10;31.40;;;;;;7359294;19;20006;-62
2022/01/25 08:21:04;;;;;;;48.47;26.08;;;0.20;30.80;;;;;;7354682;19;20014;-62
2022/01/25 08:23:45;;;;;;;53.95;25.35;;;0.10;29.90;;;;;;7365482;19;20007;-62
2022/01/25 08:26:32;;;;;;;51.70;24.80;;;0.10;29.90;;;;;;7364675;19;20021;-63
2022/01/25 08:29:02;;;;;;;46.08;24.23;;;0.20;30.50;;;;;;7385453;19;20017;-62
2022/01/25 08:31:35;;;;;;;43.78;24.05;;;0.10;29.30;;;;;;7376880;19;20467;-63
2022/01/25 08:34:11;;;;;;;46.88;22.80;;;0.20;29.60;;;;;;7363362;19;20015;-61
2022/01/25 08:36:44;;;;;;;45.92;23.77;;;0.20;29.60;;;;;;7365589;19;20010;-62
2022/01/25 08:39:14;;;;;;;49.63;25.65;;;0.20;29.50;;;;;;7368659;19;20014;-61
2022/01/25 08:41:51;;;;;;;52.55;26.25;;;0.30;29.50;;;;;;7355561;19;20014;-61
2022/01/25 08:44:27;;;;;;;47.08;23.55;;;0.40;29.20;;;;;;7362658;19;20077;-61
2022/01/25 08:47:03;;;;;;;46.03;24.45;;;0.50;28.80;;;;;;7385930;19;20014;-61
2022/01/25 08:49:41;;;;;;;48.17;23.92;;;0.50;28.10;;;;;;7360327;19;20074;-62
2022/01/25 08:52:13;;;;;;;46.05;23.98;;;0.60;27.70;;;;;;7358883;19;20037;-62
2022/01/25 08:54:44;;;;;;;44.15;22.98;;;0.60;27.40;;;;;;7366807;19;20007;-62
2022/01/25 08:57:17;;;;;;;44.03;23.58;;;0.60;27.30;;;;;;7367831;19;20022;-61
2022/01/25 08:59:56;;;;;;;41.13;22.55;;;0.60;26.90;;;;;;7362186;19;20015;-61
2022/01/25 09:02:29;;;;;;;44.33;23.95;;;0.70;27.00;;;;;;7362732;19;20022;-62
2022/01/25 09:04:59;;;;;;;39.53;21.77;;;0.80;26.90;;;;;;7384387;19;20074;-62
2022/01/25 09:07:29;;;;;;;37.97;21.73;;;0.90;25.90;;;;;;7363944;19;20018;-62
2022/01/25 09:09:59;;;;;;;38.83;21.92;;;1.00;25.30;;;;;;7358963;19;20404;-62
2022/01/25 09:12:29;;;;;;;39.00;21.92;;;1.00;24.60;;;;;;7363044;19;20085;-63
2022/01/25 09:14:59;;;;;;;42.28;22.70;;;1.00;23.90;;;;;;7364086;19;20372;-62
2022/01/25 09:17:31;;;;;;;37.65;21.45;;;1.10;23.50;;;;;;7366048;19;20021;-62
2022/01/25 09:20:02;;;;;;;48.58;25.35;;;1.20;22.90;;;;;;7380391;19;20019;-62
2022/01/25 09:22:32;;;;;;;58.50;32.83;;;1.30;22.40;;;;;;7364746;19;20007;-62
2022/01/25 09:25:22;;;;;;;45.58;23.52;;;1.40;21.50;;;;;;7363450;19;20010;-62
2022/01/25 09:27:52;;;;;;;43.88;22.95;;;1.50;20.70;;;;;;7365554;19;20126;-61
2022/01/25 09:30:22;;;;;;;43.72;22.58;;;1.60;20.40;;;;;;7356083;19;20045;-62
2022/01/25 09:32:54;;;;;;;38.22;20.92;;;1.50;19.40;;;;;;7365622;19;20006;-62
2022/01/25 09:35:25;;;;;;;40.63;22.23;;;1.50;19.30;;;;;;7364142;19;20086;-62
2022/01/25 09:37:54;;;;;;;37.88;21.80;;;1.60;19.60;;;;;;7381705;19;20015;-61
2022/01/25 09:40:24;;;;;;;36.13;20.55;;;1.70;19.30;;;;;;7356292;19;20097;-62
2022/01/25 09:42:57;;;;;;;40.28;21.48;;;1.70;19.10;;;;;;7365279;19;20507;-61
2022/01/25 09:45:27;;;;;;;41.67;22.02;;;1.70;18.80;;;;;;7362924;19;20094;-62
2022/01/25 09:48:00;;;;;;;36.85;21.73;;;1.70;18.60;;;;;;7366453;19;20006;-62
2022/01/25 09:50:38;;;;;;;39.22;22.38;;;1.90;18.10;;;;;;7357109;19;20044;-62
2022/01/25 09:53:09;;;;;;;35.10;21.88;;;1.60;17.30;;;;;;7385288;19;20006;-62
2022/01/25 09:55:42;;;;;;;40.30;21.60;;;1.80;17.70;;;;;;7363771;19;20011;-61
2022/01/25 09:58:15;;;;;;;39.40;22.92;;;1.80;17.90;;;;;;7368278;19;20038;-62
2022/01/25 10:00:48;;;;;;;37.95;20.98;;;1.80;18.70;;;;;;7352975;19;20024;-62
2022/01/25 10:03:26;;;;;;;38.78;22.10;;;1.80;18.10;;;;;;7364576;19;20011;-62
2022/01/25 10:06:00;;;;;;;42.13;22.67;;;1.80;18.50;;;;;;7365567;19;20101;-62
2022/01/25 10:08:34;;;;;;;39.08;21.88;;;1.70;18.30;;;;;;7359618;19;20633;-62
2022/01/25 10:11:07;;;;;;;40.72;21.48;;;1.70;19.50;;;;;;7352745;19;20654;-63
2022/01/25 10:13:38;;;;;;;42.55;22.30;;;1.70;20.30;;;;;;7384945;19;20018;-62
2022/01/25 10:16:10;;;;;;;40.33;22.70;;;1.70;21.00;;;;;;7360072;19;20150;-62
2022/01/25 10:18:48;;;;;;;43.17;23.90;;;1.90;21.10;;;;;;7362832;19;20047;-62
2022/01/25 10:21:22;;;;;;;38.53;21.85;;;1.70;21.70;;;;;;7355452;19;20454;-63
2022/01/25 10:24:03;;;;;;;48.38;23.15;;;1.70;21.80;;;;;;7362307;19;20439;-61
2022/01/25 10:26:54;;;;;;;38.20;23.35;;;1.90;20.60;;;;;;7360996;19;20019;-61
2022/01/25 10:29:26;;;;;;;40.22;22.90;;;1.70;21.00;;;;;;7365060;19;20062;-62
2022/01/25 10:31:58;;;;;;;40.40;23.02;;;1.80;22.70;;;;;;7378492;19;21969;-62
2022/01/25 10:34:33;;;;;;;42.00;24.35;;;1.70;22.40;;;;;;7362312;19;20010;-61
2022/01/25 10:37:10;;;;;;;39.05;22.77;;;1.80;23.40;;;;;;7359867;19;20022;-62
2022/01/25 10:39:44;;;;;;;43.88;24.60;;;2.00;22.50;;;;;;7365172;19;20700;-61
2022/01/25 10:42:21;;;;;;;49.83;26.63;;;1.90;21.10;;;;;;7356492;19;20035;-62
2022/01/25 10:44:53;;;;;;;53.20;26.35;;;1.80;23.00;;;;;;7361400;19;20798;-63
2022/01/25 10:47:40;;;;;;;49.10;25.20;;;1.70;24.30;;;;;;7360502;19;20082;-62
2022/01/25 10:50:21;;;;;;;48.17;25.58;;;1.50;24.20;;;;;;7374059;19;20011;-62
2022/01/25 10:53:07;;;;;;;59.08;27.83;;;1.60;24.90;;;;;;7361512;19;20022;-61
2022/01/25 10:55:41;;;;;;;56.95;27.52;;;1.40;24.70;;;;;;7363883;19;20355;-61
2022/01/25 10:58:12;;;;;;;53.92;27.77;;;1.50;25.90;;;;;;7363444;19;20040;-61
2022/01/25 11:00:44;;;;;;;56.00;28.08;;;1.10;26.30;;;;;;7352501;19;20006;-62
2022/01/25 11:03:28;;;;;;;56.35;29.30;;;1.30;26.10;;;;;;7365233;19;20018;-63
2022/01/25 11:06:12;;;;;;;56.67;28.75;;;1.50;28.60;;;;;;7364372;19;20338;-61
2022/01/25 11:08:42;;;;;;;58.08;28.25;;;1.30;27.40;;;;;;7362065;19;20097;-63
2022/01/25 11:11:23;;;;;;;53.67;28.17;;;1.20;27.80;;;;;;7353741;19;20014;-62
2022/01/25 11:13:56;;;;;;;56.60;28.73;;;1.20;29.50;;;;;;7386073;19;20021;-62
2022/01/25 11:16:26;;;;;;;63.42;29.60;;;1.20;27.60;;;;;;7359866;19;20014;-62
2022/01/25 11:19:15;;;;;;;55.03;29.35;;;1.50;26.90;;;;;;7361009;19;20014;-62
2022/01/25 11:21:49;;;;;;;63.10;31.65;;;1.40;27.40;;;;;;7351089;19;20091;-62
2022/01/25 11:24:23;;;;;;;60.30;30.30;;;1.30;28.30;;;;;;7361659;19;20077;-61
2022/01/25 11:26:55;;;;;;;61.28;30.00;;;1.40;29.20;;;;;;7360625;19;20006;-63
2022/01/25 11:29:26;;;;;;;67.28;32.80;;;1.30;27.40;;;;;;7362706;19;20314;-61
2022/01/25 11:32:00;;;;;;;61.10;30.75;;;1.20;28.10;;;;;;7373565;19;20294;-62
2022/01/25 11:34:33;;;;;;;60.88;29.13;;;1.20;28.70;;;;;;7361715;19;20049;-62
2022/01/25 11:37:12;;;;;;;67.28;31.23;;;1.00;28.80;;;;;;7360426;19;20018;-61
2022/01/25 11:39:47;;;;;;;70.68;35.40;;;1.20;29.90;;;;;;7359596;19;20089;-62
2022/01/25 11:42:23;;;;;;;68.97;32.13;;;1.20;29.90;;;;;;7356772;19;20021;-63
2022/01/25 11:44:55;;;;;;;82.38;41.03;;;1.30;29.30;;;;;;7362715;19;20129;-63
2022/01/25 11:47:32;;;;;;;78.80;37.42;;;1.20;28.60;;;;;;7361676;19;20534;-63
2022/01/25 11:50:04;;;;;;;68.32;33.90;;;1.20;30.70;;;;;;7375277;19;20632;-62
2022/01/25 11:52:37;;;;;;;66.70;37.35;;;1.30;29.40;;;;;;7360639;19;20020;-62
2022/01/25 11:55:26;;;;;;;72.72;39.58;;;1.30;29.50;;;;;;7363914;19;20020;-62
2022/01/25 11:57:59;;;;;;;62.40;30.70;;;1.30;28.30;;;;;;7367707;19;20078;-61
2022/01/25 12:00:41;;;;;;;62.80;29.77;;;1.20;29.40;;;;;;7358398;19;20015;-62
2022/01/25 12:03:27;;;;;;;69.47;32.42;;;1.30;29.70;;;;;;7368766;19;20443;-61
2022/01/25 12:06:04;;;;;;;60.25;30.55;;;1.50;28.10;;;;;;7368932;19;20038;-62
2022/01/25 12:08:51;;;;;;;55.38;29.77;;;1.50;28.80;;;;;;7368419;19;20010;-62
2022/01/25 12:11:33;;;;;;;63.92;32.30;;;1.40;29.70;;;;;;7359154;19;20071;-62
2022/01/25 12:14:16;;;;;;;57.88;31.02;;;1.50;29.50;;;;;;7373837;19;20028;-62
2022/01/25 12:16:48;;;;;;;60.05;31.77;;;1.40;27.80;;;;;;7387915;19;20022;-62
2022/01/25 12:19:20;;;;;;;61.33;29.55;;;1.60;28.60;;;;;;7367188;19;20018;-62
2022/01/25 12:22:01;;;;;;;61.72;30.52;;;1.30;29.50;;;;;;7359157;19;20458;-60
2022/01/25 12:24:38;;;;;;;69.45;32.25;;;1.40;29.60;;;;;;7368263;19;20010;-62
2022/01/25 12:27:18;;;;;;;61.70;30.25;;;1.50;29.30;;;;;;7367030;19;20077;-62
2022/01/25 12:29:59;;;;;;;62.10;30.48;;;1.60;30.10;;;;;;7366537;19;20506;-62
2022/01/25 12:32:33;;;;;;;61.35;30.52;;;1.30;28.20;;;;;;7366438;19;20006;-62
2022/01/25 12:35:14;;;;;;;66.68;31.10;;;1.40;29.60;;;;;;7366647;19;20078;-61
2022/01/25 12:37:58;;;;;;;66.15;30.10;;;1.60;29.40;;;;;;7388576;19;20022;-61
2022/01/25 12:40:35;;;;;;;64.18;30.70;;;1.50;27.70;;;;;;7360336;19;20465;-61
2022/01/25 12:43:07;;;;;;;64.32;32.08;;;1.50;30.00;;;;;;7364768;19;20049;-61
2022/01/25 12:45:47;;;;;;;66.30;32.45;;;1.40;30.80;;;;;;7362417;19;20141;-61
2022/01/25 12:48:20;;;;;;;67.68;31.77;;;1.50;29.80;;;;;;7368878;19;20020;-62
2022/01/25 12:50:51;;;;;;;66.88;33.63;;;1.50;29.30;;;;;;7354797;19;20419;-62
2022/01/25 12:53:23;;;;;;;64.35;32.17;;;1.50;29.60;;;;;;7366551;19;20140;-62
2022/01/25 12:55:59;;;;;;;61.05;31.58;;;1.70;29.40;;;;;;7389449;19;20019;-62
2022/01/25 12:58:31;;;;;;;59.15;29.30;;;1.80;28.00;;;;;;7366625;19;20059;-62
2022/01/25 13:01:05;;;;;;;63.92;30.60;;;1.80;28.80;;;;;;7355957;19;20010;-62
2022/01/25 13:03:36;;;;;;;64.68;32.05;;;1.60;29.00;;;;;;7369073;19;20014;-64
2022/01/25 13:06:11;;;;;;;66.78;30.77;;;1.90;30.80;;;;;;7364482;19;20018;-61
2022/01/25 13:08:47;;;;;;;63.15;31.80;;;1.80;28.90;;;;;;7365227;19;20027;-61
2022/01/25 13:11:26;;;;;;;63.97;31.33;;;1.70;31.10;;;;;;7357727;19;20719;-61
2022/01/25 13:14:01;;;;;;;62.85;31.95;;;1.80;30.50;;;;;;7389530;19;20545;-62
2022/01/25 13:16:39;;;;;;;65.30;31.13;;;1.80;29.00;;;;;;7364313;19;20006;-61
2022/01/25 13:19:18;;;;;;;67.10;31.27;;;1.70;31.10;;;;;;7366716;19;20031;-62
2022/01/25 13:21:53;;;;;;;59.35;30.70;;;1.90;28.70;;;;;;7357954;19;20011;-61
2022/01/25 13:24:43;;;;;;;63.38;30.15;;;1.80;29.90;;;;;;7366060;19;20034;-61
2022/01/25 13:27:20;;;;;;;63.60;32.33;;;1.50;30.20;;;;;;7364777;19;20011;-61
2022/01/25 13:32:37;;;;;;;68.80;33.17;;;1.60;32.70;;;;;;7365035;19;20473;-61
2022/01/25 13:35:22;;;;;;;68.00;32.42;;;1.80;31.90;;;;;;7363661;19;20474;-62
2022/01/25 13:38:08;;;;;;;68.00;31.90;;;1.70;30.10;;;;;;7387005;19;20074;-61
2022/01/25 13:40:49;;;;;;;68.82;33.20;;;1.80;32.30;;;;;;7358220;19;20017;-61
2022/01/25 13:45:43;;;;;;;71.68;34.47;;;1.80;30.00;;;;;;7364218;19;20011;-62
2022/01/25 13:46:26;;;;;;;74.38;32.50;;;1.70;31.20;;;;;;7359333;19;20018;-62
2022/01/25 13:48:57;;;;;;;65.50;31.60;;;1.30;34.50;;;;;;7364097;19;20118;-62
2022/01/25 13:51:29;;;;;;;77.18;34.92;;;1.60;34.10;;;;;;7353149;19;20388;-62
2022/01/25 13:54:01;;;;;;;73.35;33.88;;;1.60;33.40;;;;;;7360290;19;20010;-62
2022/01/25 13:56:36;;;;;;;80.65;35.38;;;1.70;34.80;;;;;;7362270;19;20023;-62
2022/01/25 13:59:09;;;;;;;69.10;34.85;;;1.90;33.60;;;;;;7386783;19;20027;-61
2022/01/25 14:01:43;;;;;;;76.10;33.42;;;1.90;29.80;;;;;;7353029;19;20019;-62
2022/01/25 14:04:19;;;;;;;68.63;34.50;;;2.00;30.20;;;;;;7365112;19;20017;-62
2022/01/25 14:06:54;;;;;;;73.15;34.97;;;1.90;30.30;;;;;;7363745;19;20049;-62
2022/01/25 14:09:28;;;;;;;78.22;35.45;;;1.90;30.70;;;;;;7364452;19;20007;-63
2022/01/25 14:23:21;;;;;;;79.22;32.72;;;1.50;35.20;;;;;;7263596;19;2005429;-63
2022/01/25 14:25:59;;;;;;;79.68;35.83;;;1.60;36.10;;;;;;7386700;19;20021;-62
2022/01/25 14:28:32;;;;;;;84.60;35.28;;;1.60;34.10;;;;;;7363729;19;20017;-62
2022/01/25 14:31:05;;;;;;;77.50;34.72;;;1.50;35.40;;;;;;7354376;19;20392;-62
2022/01/25 14:33:35;;;;;;;83.10;35.33;;;1.70;35.30;;;;;;7367182;19;20104;-62